sensor_id;sensor_type;location;lat;lon;timestamp;temperature;humidity
38458;DHT22;24239;48.058;10.486;2023-04-01T00:01:10;6.20;99.90
38458;DHT22;24239;48.058;10.486;2023-04-01T00:03:39;6.20;99.90
38458;DHT22;24239;48.058;10.486;2023-04-01T00:06:05;6.10;99.90
38458;DHT22;24239;48.058;10.486;2023-04-01T00:08:31;6.10;99.90
38458;DHT22;24239;48.058;10.486;2023-04-01T00:10:57;6.20;99.90
38458;DHT22;24239;48.058;10.486;2023-04-01T00:13:24;6.40;99.90
38458;DHT22;24239;48.058;10.486;2023-04-01T00:15:51;6.40;99.90
38458;DHT22;24239;48.058;10.486;2023-04-01T00:18:17;6.40;99.90
38458;DHT22;24239;48.058;10.486;2023-04-01T00:20:46;6.60;99.90
38458;DHT22;24239;48.058;10.486;2023-04-01T00:23:13;6.60;99.90
38458;DHT22;24239;48.058;10.486;2023-04-01T00:25:39;6.60;99.90
38458;DHT22;24239;48.058;10.486;2023-04-01T00:28:05;6.50;99.90
38458;DHT22;24239;48.058;10.486;2023-04-01T00:30:31;6.50;99.90
38458;DHT22;24239;48.058;10.486;2023-04-01T00:32:56;6.40;99.90
38458;DHT22;24239;48.058;10.486;2023-04-01T00:35:22;6.40;99.90
38458;DHT22;24239;48.058;10.486;2023-04-01T00:37:51;6.30;99.90
38458;DHT22;24239;48.058;10.486;2023-04-01T00:40:23;6.30;99.90
38458;DHT22;24239;48.058;10.486;2023-04-01T00:42:49;6.40;99.90
38458;DHT22;24239;48.058;10.486;2023-04-01T00:47:50;6.40;99.90
38458;DHT22;24239;48.058;10.486;2023-04-01T00:50:15;6.40;99.90
38458;DHT22;24239;48.058;10.486;2023-04-01T00:52:41;6.40;99.90
38458;DHT22;24239;48.058;10.486;2023-04-01T00:55:07;6.40;99.90
38458;DHT22;24239;48.058;10.486;2023-04-01T00:57:36;6.40;99.90
38458;DHT22;24239;48.058;10.486;2023-04-01T01:00:04;6.40;99.90
38458;DHT22;24239;48.058;10.486;2023-04-01T01:02:32;6.50;99.90
38458;DHT22;24239;48.058;10.486;2023-04-01T01:04:58;6.50;99.90
38458;DHT22;24239;48.058;10.486;2023-04-01T01:12:36;6.50;99.90
38458;DHT22;24239;48.058;10.486;2023-04-01T01:18:18;6.40;99.90
38458;DHT22;24239;48.058;10.486;2023-04-01T01:25:55;6.50;99.90
38458;DHT22;24239;48.058;10.486;2023-04-01T01:28:36;6.30;99.90
38458;DHT22;24239;48.058;10.486;2023-04-01T01:31:15;6.30;99.90
38458;DHT22;24239;48.058;10.486;2023-04-01T01:33:52;6.30;99.90
38458;DHT22;24239;48.058;10.486;2023-04-01T01:36:22;6.30;99.90
38458;DHT22;24239;48.058;10.486;2023-04-01T01:38:54;6.20;99.90
38458;DHT22;24239;48.058;10.486;2023-04-01T01:41:20;6.30;99.90
38458;DHT22;24239;48.058;10.486;2023-04-01T01:43:47;6.30;99.90
38458;DHT22;24239;48.058;10.486;2023-04-01T01:46:19;6.40;99.90
38458;DHT22;24239;48.058;10.486;2023-04-01T01:48:46;6.20;99.90
38458;DHT22;24239;48.058;10.486;2023-04-01T01:51:13;6.10;99.90
38458;DHT22;24239;48.058;10.486;2023-04-01T01:53:38;6.20;99.90
38458;DHT22;24239;48.058;10.486;2023-04-01T01:56:04;6.00;99.90
38458;DHT22;24239;48.058;10.486;2023-04-01T01:58:32;6.00;99.90
38458;DHT22;24239;48.058;10.486;2023-04-01T02:01:01;5.90;99.90
38458;DHT22;24239;48.058;10.486;2023-04-01T02:03:29;5.90;99.90
38458;DHT22;24239;48.058;10.486;2023-04-01T02:05:56;5.90;99.90
38458;DHT22;24239;48.058;10.486;2023-04-01T02:08:27;5.90;99.90
38458;DHT22;24239;48.058;10.486;2023-04-01T02:10:56;5.80;99.90
38458;DHT22;24239;48.058;10.486;2023-04-01T02:13:31;5.80;99.90
38458;DHT22;24239;48.058;10.486;2023-04-01T02:16:00;5.80;99.90
38458;DHT22;24239;48.058;10.486;2023-04-01T02:18:28;5.70;99.90
38458;DHT22;24239;48.058;10.486;2023-04-01T02:20:56;5.70;99.90
38458;DHT22;24239;48.058;10.486;2023-04-01T02:23:22;5.70;99.90
38458;DHT22;24239;48.058;10.486;2023-04-01T02:25:48;5.60;99.90
38458;DHT22;24239;48.058;10.486;2023-04-01T02:28:13;5.70;99.90
38458;DHT22;24239;48.058;10.486;2023-04-01T02:30:42;5.60;99.90
38458;DHT22;24239;48.058;10.486;2023-04-01T02:33:08;5.60;99.90
38458;DHT22;24239;48.058;10.486;2023-04-01T02:35:35;5.60;99.90
38458;DHT22;24239;48.058;10.486;2023-04-01T02:38:02;5.60;99.90
38458;DHT22;24239;48.058;10.486;2023-04-01T02:40:28;5.70;99.90
38458;DHT22;24239;48.058;10.486;2023-04-01T02:42:53;5.70;99.90
38458;DHT22;24239;48.058;10.486;2023-04-01T02:45:19;5.60;99.90
38458;DHT22;24239;48.058;10.486;2023-04-01T02:47:45;5.60;99.90
38458;DHT22;24239;48.058;10.486;2023-04-01T02:50:11;5.50;99.90
38458;DHT22;24239;48.058;10.486;2023-04-01T02:52:39;5.50;99.90
38458;DHT22;24239;48.058;10.486;2023-04-01T02:55:05;5.40;99.90
38458;DHT22;24239;48.058;10.486;2023-04-01T02:57:31;5.40;99.90
38458;DHT22;24239;48.058;10.486;2023-04-01T02:59:57;5.40;99.90
38458;DHT22;24239;48.058;10.486;2023-04-01T03:02:22;5.30;99.90
38458;DHT22;24239;48.058;10.486;2023-04-01T03:04:48;5.20;99.90
38458;DHT22;24239;48.058;10.486;2023-04-01T03:07:14;5.20;99.90
38458;DHT22;24239;48.058;10.486;2023-04-01T03:09:40;5.10;99.90
38458;DHT22;24239;48.058;10.486;2023-04-01T03:12:06;5.20;99.90
38458;DHT22;24239;48.058;10.486;2023-04-01T03:14:32;5.20;99.90
38458;DHT22;24239;48.058;10.486;2023-04-01T03:16:58;5.20;99.90
38458;DHT22;24239;48.058;10.486;2023-04-01T03:19:24;5.30;99.90
38458;DHT22;24239;48.058;10.486;2023-04-01T03:21:49;5.20;99.90
38458;DHT22;24239;48.058;10.486;2023-04-01T03:24:15;5.40;99.90
38458;DHT22;24239;48.058;10.486;2023-04-01T03:26:41;5.40;99.90
38458;DHT22;24239;48.058;10.486;2023-04-01T03:29:07;5.40;99.90
38458;DHT22;24239;48.058;10.486;2023-04-01T03:31:33;5.50;99.90
38458;DHT22;24239;48.058;10.486;2023-04-01T03:33:59;5.60;99.90
38458;DHT22;24239;48.058;10.486;2023-04-01T03:36:25;5.60;99.90
38458;DHT22;24239;48.058;10.486;2023-04-01T03:38:51;5.70;99.90
38458;DHT22;24239;48.058;10.486;2023-04-01T03:41:17;5.70;99.90
38458;DHT22;24239;48.058;10.486;2023-04-01T03:43:43;5.70;99.90
38458;DHT22;24239;48.058;10.486;2023-04-01T03:46:09;5.80;99.90
38458;DHT22;24239;48.058;10.486;2023-04-01T03:48:35;5.80;99.90
38458;DHT22;24239;48.058;10.486;2023-04-01T03:51:01;5.80;99.90
38458;DHT22;24239;48.058;10.486;2023-04-01T03:53:26;5.80;99.90
38458;DHT22;24239;48.058;10.486;2023-04-01T03:55:52;5.80;99.90
38458;DHT22;24239;48.058;10.486;2023-04-01T03:58:18;5.80;99.90
38458;DHT22;24239;48.058;10.486;2023-04-01T04:00:47;5.80;99.90
38458;DHT22;24239;48.058;10.486;2023-04-01T04:03:12;5.80;99.90
38458;DHT22;24239;48.058;10.486;2023-04-01T04:05:45;5.90;99.90
38458;DHT22;24239;48.058;10.486;2023-04-01T04:08:11;5.90;99.90
38458;DHT22;24239;48.058;10.486;2023-04-01T04:10:36;6.00;99.90
38458;DHT22;24239;48.058;10.486;2023-04-01T04:13:02;5.90;99.90
38458;DHT22;24239;48.058;10.486;2023-04-01T04:15:28;6.00;99.90
38458;DHT22;24239;48.058;10.486;2023-04-01T04:17:54;6.00;99.90
38458;DHT22;24239;48.058;10.486;2023-04-01T04:20:19;5.90;99.90
38458;DHT22;24239;48.058;10.486;2023-04-01T04:22:45;6.10;99.90
38458;DHT22;24239;48.058;10.486;2023-04-01T04:25:11;6.00;99.90
38458;DHT22;24239;48.058;10.486;2023-04-01T04:27:37;6.20;99.90
38458;DHT22;24239;48.058;10.486;2023-04-01T04:30:03;6.10;99.90
38458;DHT22;24239;48.058;10.486;2023-04-01T04:32:35;6.20;99.90
38458;DHT22;24239;48.058;10.486;2023-04-01T04:35:05;6.10;99.90
38458;DHT22;24239;48.058;10.486;2023-04-01T04:37:32;6.00;99.90
38458;DHT22;24239;48.058;10.486;2023-04-01T04:39:58;6.10;99.90
38458;DHT22;24239;48.058;10.486;2023-04-01T04:42:24;6.00;99.90
38458;DHT22;24239;48.058;10.486;2023-04-01T04:44:50;6.10;99.90
38458;DHT22;24239;48.058;10.486;2023-04-01T04:47:15;6.00;99.90
38458;DHT22;24239;48.058;10.486;2023-04-01T04:49:41;6.00;99.90
38458;DHT22;24239;48.058;10.486;2023-04-01T04:52:07;5.90;99.90
38458;DHT22;24239;48.058;10.486;2023-04-01T04:54:33;6.00;99.90
38458;DHT22;24239;48.058;10.486;2023-04-01T04:56:58;5.90;99.90
38458;DHT22;24239;48.058;10.486;2023-04-01T04:59:24;6.00;99.90
38458;DHT22;24239;48.058;10.486;2023-04-01T05:01:50;5.80;99.90
38458;DHT22;24239;48.058;10.486;2023-04-01T05:04:16;5.80;99.90
38458;DHT22;24239;48.058;10.486;2023-04-01T05:06:42;5.70;99.90
38458;DHT22;24239;48.058;10.486;2023-04-01T05:09:12;5.80;99.90
38458;DHT22;24239;48.058;10.486;2023-04-01T05:11:38;5.80;99.90
38458;DHT22;24239;48.058;10.486;2023-04-01T05:14:03;6.00;99.90
38458;DHT22;24239;48.058;10.486;2023-04-01T05:16:29;5.80;99.90
38458;DHT22;24239;48.058;10.486;2023-04-01T05:18:58;5.80;99.90
38458;DHT22;24239;48.058;10.486;2023-04-01T05:21:23;5.90;99.90
38458;DHT22;24239;48.058;10.486;2023-04-01T05:23:49;6.00;99.90
38458;DHT22;24239;48.058;10.486;2023-04-01T05:26:15;5.90;99.90
38458;DHT22;24239;48.058;10.486;2023-04-01T05:28:41;6.00;99.90
38458;DHT22;24239;48.058;10.486;2023-04-01T05:31:07;6.20;99.90
38458;DHT22;24239;48.058;10.486;2023-04-01T05:33:34;6.10;99.90
38458;DHT22;24239;48.058;10.486;2023-04-01T05:36:13;6.30;99.90
38458;DHT22;24239;48.058;10.486;2023-04-01T05:38:40;6.40;99.90
38458;DHT22;24239;48.058;10.486;2023-04-01T05:41:06;6.30;99.90
38458;DHT22;24239;48.058;10.486;2023-04-01T05:43:32;6.40;99.90
38458;DHT22;24239;48.058;10.486;2023-04-01T05:46:01;6.50;99.90
38458;DHT22;24239;48.058;10.486;2023-04-01T05:48:26;6.50;99.90
38458;DHT22;24239;48.058;10.486;2023-04-01T05:50:52;6.50;99.90
38458;DHT22;24239;48.058;10.486;2023-04-01T05:53:19;6.60;99.90
38458;DHT22;24239;48.058;10.486;2023-04-01T05:55:45;6.60;99.90
38458;DHT22;24239;48.058;10.486;2023-04-01T05:58:11;6.50;99.90
38458;DHT22;24239;48.058;10.486;2023-04-01T06:00:37;6.60;99.90
38458;DHT22;24239;48.058;10.486;2023-04-01T06:03:04;6.50;99.90
38458;DHT22;24239;48.058;10.486;2023-04-01T06:05:42;6.60;99.90
38458;DHT22;24239;48.058;10.486;2023-04-01T06:08:10;6.60;99.90
38458;DHT22;24239;48.058;10.486;2023-04-01T06:19:02;6.80;99.90
38458;DHT22;24239;48.058;10.486;2023-04-01T06:40:39;7.20;99.90
38458;DHT22;24239;48.058;10.486;2023-04-01T06:48:24;7.30;99.90
38458;DHT22;24239;48.058;10.486;2023-04-01T06:50:57;7.40;99.90
38458;DHT22;24239;48.058;10.486;2023-04-01T06:56:14;7.50;99.90
38458;DHT22;24239;48.058;10.486;2023-04-01T06:58:42;7.50;99.90
38458;DHT22;24239;48.058;10.486;2023-04-01T07:01:11;7.50;99.90
38458;DHT22;24239;48.058;10.486;2023-04-01T07:03:43;7.60;99.90
38458;DHT22;24239;48.058;10.486;2023-04-01T07:06:22;7.80;99.90
38458;DHT22;24239;48.058;10.486;2023-04-01T07:08:49;7.80;99.90
38458;DHT22;24239;48.058;10.486;2023-04-01T07:11:21;7.70;99.90
38458;DHT22;24239;48.058;10.486;2023-04-01T07:13:52;7.80;99.90
38458;DHT22;24239;48.058;10.486;2023-04-01T07:16:26;7.90;99.90
38458;DHT22;24239;48.058;10.486;2023-04-01T07:19:03;7.90;99.90
38458;DHT22;24239;48.058;10.486;2023-04-01T07:21:32;8.00;99.90
38458;DHT22;24239;48.058;10.486;2023-04-01T07:24:04;7.80;99.90
38458;DHT22;24239;48.058;10.486;2023-04-01T07:26:31;7.80;99.90
38458;DHT22;24239;48.058;10.486;2023-04-01T07:28:57;7.90;99.90
38458;DHT22;24239;48.058;10.486;2023-04-01T07:33:52;8.00;99.90
38458;DHT22;24239;48.058;10.486;2023-04-01T07:36:36;8.20;99.90
38458;DHT22;24239;48.058;10.486;2023-04-01T07:39:08;8.20;99.90
38458;DHT22;24239;48.058;10.486;2023-04-01T07:41:47;8.20;99.90
38458;DHT22;24239;48.058;10.486;2023-04-01T07:44:24;8.40;99.90
38458;DHT22;24239;48.058;10.486;2023-04-01T07:49:21;8.70;99.90
38458;DHT22;24239;48.058;10.486;2023-04-01T07:57:29;8.60;99.90
38458;DHT22;24239;48.058;10.486;2023-04-01T08:00:02;8.60;99.90
38458;DHT22;24239;48.058;10.486;2023-04-01T08:05:27;8.70;99.90
38458;DHT22;24239;48.058;10.486;2023-04-01T08:10:29;8.70;99.90
38458;DHT22;24239;48.058;10.486;2023-04-01T08:21:02;9.00;99.90
38458;DHT22;24239;48.058;10.486;2023-04-01T08:23:33;9.10;99.90
38458;DHT22;24239;48.058;10.486;2023-04-01T08:28:36;9.40;99.90
38458;DHT22;24239;48.058;10.486;2023-04-01T08:31:12;9.30;99.90
38458;DHT22;24239;48.058;10.486;2023-04-01T08:33:39;9.50;99.90
38458;DHT22;24239;48.058;10.486;2023-04-01T08:36:23;9.70;99.90
38458;DHT22;24239;48.058;10.486;2023-04-01T08:56:21;10.00;99.90
38458;DHT22;24239;48.058;10.486;2023-04-01T09:09:59;10.70;99.90
38458;DHT22;24239;48.058;10.486;2023-04-01T09:17:51;10.20;99.90
38458;DHT22;24239;48.058;10.486;2023-04-01T09:25:53;10.40;99.90
38458;DHT22;24239;48.058;10.486;2023-04-01T09:28:33;10.40;99.90
38458;DHT22;24239;48.058;10.486;2023-04-01T09:41:22;10.80;99.90
38458;DHT22;24239;48.058;10.486;2023-04-01T09:54:16;10.40;99.90
38458;DHT22;24239;48.058;10.486;2023-04-01T10:01:44;10.00;99.90
38458;DHT22;24239;48.058;10.486;2023-04-01T10:38:16;7.90;99.90
38458;DHT22;24239;48.058;10.486;2023-04-01T10:51:20;7.70;99.90
38458;DHT22;24239;48.058;10.486;2023-04-01T11:04:07;7.60;99.90
38458;DHT22;24239;48.058;10.486;2023-04-01T11:11:45;7.60;99.90
38458;DHT22;24239;48.058;10.486;2023-04-01T11:16:47;7.90;99.90
38458;DHT22;24239;48.058;10.486;2023-04-01T11:27:42;8.00;99.90
38458;DHT22;24239;48.058;10.486;2023-04-01T11:33:04;8.00;99.90
38458;DHT22;24239;48.058;10.486;2023-04-01T11:45:49;8.60;99.90
38458;DHT22;24239;48.058;10.486;2023-04-01T11:48:34;8.60;99.90
38458;DHT22;24239;48.058;10.486;2023-04-01T11:51:09;8.60;99.90
38458;DHT22;24239;48.058;10.486;2023-04-01T12:09:41;8.60;99.90
38458;DHT22;24239;48.058;10.486;2023-04-01T12:17:37;8.70;99.90
38458;DHT22;24239;48.058;10.486;2023-04-01T12:25:31;8.50;99.90
38458;DHT22;24239;48.058;10.486;2023-04-01T12:41:01;8.10;99.90
38458;DHT22;24239;48.058;10.486;2023-04-01T12:46:23;8.10;99.90
38458;DHT22;24239;48.058;10.486;2023-04-01T13:06:40;8.40;99.90
38458;DHT22;24239;48.058;10.486;2023-04-01T13:09:14;8.50;99.90
38458;DHT22;24239;48.058;10.486;2023-04-01T13:19:42;8.80;99.90
38458;DHT22;24239;48.058;10.486;2023-04-01T13:25:28;8.70;99.90
38458;DHT22;24239;48.058;10.486;2023-04-01T13:28:00;8.70;99.90
38458;DHT22;24239;48.058;10.486;2023-04-01T13:30:39;8.60;99.90
38458;DHT22;24239;48.058;10.486;2023-04-01T13:38:53;8.60;99.90
38458;DHT22;24239;48.058;10.486;2023-04-01T13:48:58;8.50;99.90
38458;DHT22;24239;48.058;10.486;2023-04-01T13:51:36;8.60;99.90
38458;DHT22;24239;48.058;10.486;2023-04-01T13:56:43;8.70;99.90
38458;DHT22;24239;48.058;10.486;2023-04-01T14:10:02;9.50;99.90
38458;DHT22;24239;48.058;10.486;2023-04-01T14:33:34;9.80;99.90
38458;DHT22;24239;48.058;10.486;2023-04-01T14:39:00;9.60;99.90
38458;DHT22;24239;48.058;10.486;2023-04-01T14:41:39;9.60;99.90
38458;DHT22;24239;48.058;10.486;2023-04-01T14:49:41;9.60;99.90
38458;DHT22;24239;48.058;10.486;2023-04-01T14:54:41;9.50;99.90
38458;DHT22;24239;48.058;10.486;2023-04-01T14:59:33;9.70;99.90
38458;DHT22;24239;48.058;10.486;2023-04-01T15:07:25;9.40;99.90
38458;DHT22;24239;48.058;10.486;2023-04-01T15:10:12;9.40;99.90
38458;DHT22;24239;48.058;10.486;2023-04-01T15:25:42;8.90;99.90
38458;DHT22;24239;48.058;10.486;2023-04-01T15:35:52;8.70;99.90
38458;DHT22;24239;48.058;10.486;2023-04-01T15:43:45;8.70;99.90
38458;DHT22;24239;48.058;10.486;2023-04-01T15:46:17;8.60;99.90
38458;DHT22;24239;48.058;10.486;2023-04-01T16:08:54;8.50;99.90
38458;DHT22;24239;48.058;10.486;2023-04-01T16:11:27;8.50;99.90
38458;DHT22;24239;48.058;10.486;2023-04-01T16:21:36;8.50;99.90
38458;DHT22;24239;48.058;10.486;2023-04-01T16:24:10;8.60;99.90
38458;DHT22;24239;48.058;10.486;2023-04-01T16:26:48;8.70;99.90
38458;DHT22;24239;48.058;10.486;2023-04-01T16:32:12;8.60;99.90
38458;DHT22;24239;48.058;10.486;2023-04-01T16:34:30;8.60;99.90
38458;DHT22;24239;48.058;10.486;2023-04-01T16:37:07;8.60;99.90
38458;DHT22;24239;48.058;10.486;2023-04-01T16:47:23;8.50;99.90
38458;DHT22;24239;48.058;10.486;2023-04-01T16:50:05;8.60;99.90
38458;DHT22;24239;48.058;10.486;2023-04-01T16:55:19;8.50;99.90
38458;DHT22;24239;48.058;10.486;2023-04-01T16:57:50;8.40;99.90
38458;DHT22;24239;48.058;10.486;2023-04-01T17:00:18;8.50;99.90
38458;DHT22;24239;48.058;10.486;2023-04-01T17:05:22;8.30;99.90
38458;DHT22;24239;48.058;10.486;2023-04-01T17:10:40;8.20;99.90
38458;DHT22;24239;48.058;10.486;2023-04-01T17:18:24;8.20;99.90
38458;DHT22;24239;48.058;10.486;2023-04-01T17:20:58;8.20;99.90
38458;DHT22;24239;48.058;10.486;2023-04-01T17:25:57;8.00;99.90
38458;DHT22;24239;48.058;10.486;2023-04-01T17:28:39;8.00;99.90
38458;DHT22;24239;48.058;10.486;2023-04-01T17:31:14;7.90;99.90
38458;DHT22;24239;48.058;10.486;2023-04-01T17:36:32;7.80;99.90
38458;DHT22;24239;48.058;10.486;2023-04-01T17:39:05;7.80;99.90
38458;DHT22;24239;48.058;10.486;2023-04-01T17:41:51;7.80;99.90
38458;DHT22;24239;48.058;10.486;2023-04-01T17:47:07;7.70;99.90
38458;DHT22;24239;48.058;10.486;2023-04-01T17:49:45;7.70;99.90
38458;DHT22;24239;48.058;10.486;2023-04-01T17:54:48;7.60;99.90
38458;DHT22;24239;48.058;10.486;2023-04-01T17:57:26;7.60;99.90
38458;DHT22;24239;48.058;10.486;2023-04-01T18:13:22;7.50;99.90
38458;DHT22;24239;48.058;10.486;2023-04-01T18:16:02;7.40;99.90
38458;DHT22;24239;48.058;10.486;2023-04-01T18:21:04;7.30;99.90
38458;DHT22;24239;48.058;10.486;2023-04-01T18:23:38;7.20;99.90
38458;DHT22;24239;48.058;10.486;2023-04-01T18:26:11;7.20;99.90
38458;DHT22;24239;48.058;10.486;2023-04-01T18:28:42;7.20;99.90
38458;DHT22;24239;48.058;10.486;2023-04-01T18:36:47;7.10;99.90
38458;DHT22;24239;48.058;10.486;2023-04-01T18:44:52;7.10;99.90
38458;DHT22;24239;48.058;10.486;2023-04-01T19:06:35;6.90;99.90
38458;DHT22;24239;48.058;10.486;2023-04-01T19:09:18;6.70;99.90
38458;DHT22;24239;48.058;10.486;2023-04-01T19:11:59;6.80;99.90
38458;DHT22;24239;48.058;10.486;2023-04-01T19:20:03;6.70;99.90
38458;DHT22;24239;48.058;10.486;2023-04-01T19:25:57;6.60;99.90
38458;DHT22;24239;48.058;10.486;2023-04-01T19:36:49;6.30;99.90
38458;DHT22;24239;48.058;10.486;2023-04-01T19:56:30;6.10;99.90
38458;DHT22;24239;48.058;10.486;2023-04-01T19:59:20;6.10;99.90
38458;DHT22;24239;48.058;10.486;2023-04-01T20:04:56;5.90;99.90
38458;DHT22;24239;48.058;10.486;2023-04-01T20:07:47;6.00;99.90
38458;DHT22;24239;48.058;10.486;2023-04-01T20:16:13;6.00;99.90
38458;DHT22;24239;48.058;10.486;2023-04-01T20:19:00;5.90;99.90
38458;DHT22;24239;48.058;10.486;2023-04-01T20:21:47;5.90;99.90
38458;DHT22;24239;48.058;10.486;2023-04-01T20:24:37;5.80;99.90
38458;DHT22;24239;48.058;10.486;2023-04-01T20:27:27;5.90;99.90
38458;DHT22;24239;48.058;10.486;2023-04-01T20:36:06;5.70;99.90
38458;DHT22;24239;48.058;10.486;2023-04-01T20:47:53;6.00;99.90
38458;DHT22;24239;48.058;10.486;2023-04-01T20:53:36;6.10;99.90
38458;DHT22;24239;48.058;10.486;2023-04-01T21:14:28;5.90;99.90
38458;DHT22;24239;48.058;10.486;2023-04-01T21:17:26;6.00;99.90
38458;DHT22;24239;48.058;10.486;2023-04-01T21:29:24;6.10;99.90
38458;DHT22;24239;48.058;10.486;2023-04-01T21:35:23;6.20;99.90
38458;DHT22;24239;48.058;10.486;2023-04-01T21:44:05;6.20;99.90
38458;DHT22;24239;48.058;10.486;2023-04-01T22:13:23;6.00;99.90
38458;DHT22;24239;48.058;10.486;2023-04-01T22:16:30;5.90;99.90
38458;DHT22;24239;48.058;10.486;2023-04-01T22:19:20;5.90;99.90
38458;DHT22;24239;48.058;10.486;2023-04-01T22:22:13;5.90;99.90
38458;DHT22;24239;48.058;10.486;2023-04-01T22:25:05;5.70;99.90
38458;DHT22;24239;48.058;10.486;2023-04-01T22:27:55;5.70;99.90
38458;DHT22;24239;48.058;10.486;2023-04-01T22:30:43;5.60;99.90
38458;DHT22;24239;48.058;10.486;2023-04-01T22:33:41;5.50;99.90
38458;DHT22;24239;48.058;10.486;2023-04-01T22:39:55;5.40;99.90
38458;DHT22;24239;48.058;10.486;2023-04-01T22:57:02;5.30;99.90
38458;DHT22;24239;48.058;10.486;2023-04-01T23:00:10;5.20;99.90
38458;DHT22;24239;48.058;10.486;2023-04-01T23:06:05;5.00;99.90
38458;DHT22;24239;48.058;10.486;2023-04-01T23:11:56;5.10;99.90
38458;DHT22;24239;48.058;10.486;2023-04-01T23:14:52;5.10;99.90
38458;DHT22;24239;48.058;10.486;2023-04-01T23:38:13;5.30;99.90
38458;DHT22;24239;48.058;10.486;2023-04-01T23:40:39;5.00;99.90
38458;DHT22;24239;48.058;10.486;2023-04-01T23:43:12;5.00;99.90
38458;DHT22;24239;48.058;10.486;2023-04-01T23:45:40;4.90;99.90
38458;DHT22;24239;48.058;10.486;2023-04-01T23:48:08;4.90;99.90
38458;DHT22;24239;48.058;10.486;2023-04-01T23:50:39;4.90;99.90
38458;DHT22;24239;48.058;10.486;2023-04-01T23:53:19;4.70;99.90
38458;DHT22;24239;48.058;10.486;2023-04-01T23:55:46;4.80;99.90
38458;DHT22;24239;48.058;10.486;2023-04-01T23:58:21;4.70;99.90
